Time;durP1;ratioP1;P1;durP2;ratioP2;P2;SDS_P1;SDS_P2;PMS_P1;PMS_P2;Temp;Humidity;BMP_temperature;BMP_pressure;BME280_temperature;BME280_humidity;BME280_pressure;Samples;Min_cycle;Max_cycle;Signal;HPM_P1;HPM_P2
2023/04/18 00:01:08;;;;;;;4.80;4.30;;;19.20;57.70;19.90;101587.00;;;;5031431;28;20229;-52
2023/04/18 00:03:36;;;;;;;4.37;3.97;;;19.20;57.70;19.90;101592.00;;;;5031259;28;20186;-52
2023/04/18 00:06:02;;;;;;;4.40;4.00;;;19.10;57.70;19.90;101588.00;;;;5030245;28;20183;-52
2023/04/18 00:08:28;;;;;;;4.50;4.10;;;19.10;57.80;19.90;101590.00;;;;5031524;28;20707;-52
2023/04/18 00:10:54;;;;;;;4.50;4.13;;;19.10;57.80;19.90;101594.00;;;;5031149;28;20258;-52
2023/04/18 00:13:19;;;;;;;4.10;3.80;;;19.00;57.80;19.80;101582.00;;;;5031134;28;20195;-52
2023/04/18 00:15:45;;;;;;;4.40;4.10;;;19.00;57.80;19.80;101584.00;;;;5031207;28;20240;-52
2023/04/18 00:18:15;;;;;;;4.30;4.00;;;19.00;57.80;19.80;101580.00;;;;5031287;28;20226;-53
2023/04/18 00:20:41;;;;;;;4.27;3.97;;;19.00;57.80;19.80;101582.00;;;;5031405;28;20203;-53
2023/04/18 00:23:07;;;;;;;4.43;4.03;;;19.00;57.80;19.80;101586.00;;;;5031061;28;20178;-52
2023/04/18 00:25:33;;;;;;;5.07;4.57;;;19.00;57.90;19.80;101575.00;;;;5030926;28;20186;-53
2023/04/18 00:27:58;;;;;;;4.20;3.90;;;19.00;58.00;19.80;101574.00;;;;5030946;28;20195;-53
2023/04/18 00:30:25;;;;;;;4.00;3.70;;;19.00;58.00;19.70;101583.00;;;;5030793;28;20222;-52
2023/04/18 00:32:51;;;;;;;4.20;3.90;;;19.00;58.00;19.70;101571.00;;;;5030319;28;20760;-52
2023/04/18 00:35:18;;;;;;;3.90;3.60;;;18.90;57.90;19.70;101576.00;;;;5030871;28;20183;-52
2023/04/18 00:37:44;;;;;;;4.30;4.00;;;19.00;58.00;19.70;101565.00;;;;5030531;28;20198;-52
2023/04/18 00:40:10;;;;;;;4.37;3.97;;;18.90;57.90;19.70;101582.00;;;;5030927;28;20683;-52
2023/04/18 00:42:36;;;;;;;4.20;3.90;;;18.90;58.00;19.70;101571.00;;;;5030382;28;20630;-52
2023/04/18 00:45:01;;;;;;;3.90;3.60;;;18.90;58.00;19.70;101573.00;;;;5030365;28;20175;-53
2023/04/18 00:47:27;;;;;;;4.47;4.07;;;18.90;58.00;19.70;101568.00;;;;5030371;28;20206;-53
2023/04/18 00:49:53;;;;;;;4.30;3.90;;;18.90;58.00;19.70;101566.00;;;;5030613;28;20187;-52
2023/04/18 00:52:19;;;;;;;4.20;3.90;;;18.90;58.00;19.70;101568.00;;;;5030596;28;20247;-52
2023/04/18 00:54:45;;;;;;;4.07;3.77;;;18.90;57.90;19.40;101570.00;;;;5038595;28;20183;-52
2023/04/18 00:57:12;;;;;;;4.27;3.97;;;18.90;58.00;19.70;101568.00;;;;5033723;28;20195;-53
2023/04/18 00:59:38;;;;;;;4.23;3.93;;;18.90;58.00;19.60;101566.00;;;;5009232;28;20220;-52
2023/04/18 01:02:04;;;;;;;4.10;3.80;;;18.80;57.90;19.60;101563.00;;;;5036118;28;20657;-53
2023/04/18 01:04:31;;;;;;;3.77;3.47;;;18.80;58.00;19.60;101567.00;;;;5036604;28;20175;-53
2023/04/18 01:06:57;;;;;;;4.00;3.70;;;18.80;58.10;19.60;101562.00;;;;5035737;28;20199;-52
2023/04/18 01:09:23;;;;;;;4.27;3.80;;;18.80;58.10;19.60;101560.00;;;;5045716;28;20179;-52
2023/04/18 01:11:49;;;;;;;3.90;3.60;;;18.80;58.00;19.60;101557.00;;;;5031862;28;20175;-53
2023/04/18 01:14:14;;;;;;;3.97;3.67;;;18.80;58.00;19.50;101551.00;;;;5030472;28;20167;-52
2023/04/18 01:16:40;;;;;;;3.90;3.60;;;18.80;58.10;19.50;101556.00;;;;5022087;28;20796;-52
2023/04/18 01:19:06;;;;;;;3.87;3.57;;;18.70;58.10;19.50;101552.00;;;;5030138;28;20175;-52
2023/04/18 01:21:34;;;;;;;4.00;3.70;;;18.70;58.10;19.50;101550.00;;;;5029831;28;20207;-53
2023/04/18 01:24:06;;;;;;;3.97;3.67;;;18.70;58.10;19.50;101549.00;;;;5029871;28;20559;-51
2023/04/18 01:26:32;;;;;;;3.50;3.30;;;18.70;58.20;19.50;101543.00;;;;5028406;28;20207;-52
2023/04/18 01:28:57;;;;;;;3.93;3.63;;;18.70;58.20;19.50;101546.00;;;;5033251;28;20312;-53
2023/04/18 01:31:23;;;;;;;3.80;3.50;;;18.70;58.20;19.50;101549.00;;;;5030936;28;20663;-52
2023/04/18 01:33:49;;;;;;;3.90;3.60;;;18.70;58.20;19.40;101544.00;;;;5030467;28;20813;-52
2023/04/18 01:36:15;;;;;;;3.80;3.50;;;18.60;58.20;19.40;101537.00;;;;5029939;28;20202;-52
2023/04/18 01:38:41;;;;;;;3.80;3.50;;;18.60;58.20;19.40;101536.00;;;;5029637;28;20201;-52
2023/04/18 01:41:06;;;;;;;3.93;3.63;;;18.60;58.20;19.40;101536.00;;;;5029550;28;20194;-52
2023/04/18 01:43:32;;;;;;;4.00;3.70;;;18.60;58.20;19.40;101531.00;;;;5029101;28;20661;-52
2023/04/18 01:45:58;;;;;;;3.77;3.47;;;18.60;58.40;19.40;101533.00;;;;5029517;28;20176;-53
2023/04/18 01:48:23;;;;;;;3.93;3.63;;;18.60;58.40;19.40;101533.00;;;;5029245;28;20211;-53
2023/04/18 01:50:49;;;;;;;3.90;3.60;;;18.60;58.40;19.40;101533.00;;;;5029389;28;20543;-53
2023/04/18 01:53:16;;;;;;;4.00;3.70;;;18.50;58.30;19.30;101532.00;;;;5029481;28;20174;-54
2023/04/18 01:55:42;;;;;;;4.10;3.80;;;18.60;58.40;19.30;101532.00;;;;5029467;28;20211;-53
2023/04/18 01:58:08;;;;;;;4.00;3.70;;;18.50;58.30;19.30;101530.00;;;;5029168;28;20177;-52
2023/04/18 02:00:33;;;;;;;3.77;3.47;;;18.50;58.30;19.30;101532.00;;;;5029096;28;20237;-52
2023/04/18 02:02:59;;;;;;;3.67;3.37;;;18.50;58.40;19.30;101529.00;;;;5029338;28;20171;-54
2023/04/18 02:05:26;;;;;;;4.00;3.70;;;18.50;58.40;19.30;101533.00;;;;5026975;28;20187;-52
2023/04/18 02:07:52;;;;;;;3.90;3.60;;;18.50;58.40;19.30;101529.00;;;;5022034;28;20194;-52
2023/04/18 02:10:18;;;;;;;3.80;3.50;;;18.50;58.40;19.20;101528.00;;;;5029214;28;20174;-52
2023/04/18 02:12:44;;;;;;;3.80;3.50;;;18.40;58.40;19.20;101532.00;;;;5027812;28;20240;-53
2023/04/18 02:15:10;;;;;;;3.40;3.20;;;18.40;58.30;19.20;101522.00;;;;5029161;28;20213;-51
2023/04/18 02:17:36;;;;;;;3.73;3.43;;;18.40;58.40;19.20;101523.00;;;;5028819;28;20198;-52
2023/04/18 02:20:02;;;;;;;3.70;3.40;;;18.40;58.40;19.20;101517.00;;;;5029415;28;20209;-52
2023/04/18 02:22:28;;;;;;;3.70;3.40;;;18.40;58.40;19.20;101525.00;;;;5028861;28;20221;-52
2023/04/18 02:24:54;;;;;;;3.83;3.53;;;18.40;58.50;19.20;101520.00;;;;5028713;28;20186;-51
2023/04/18 02:27:19;;;;;;;3.50;3.20;;;18.40;58.50;19.20;101526.00;;;;5028453;28;20209;-52
2023/04/18 02:29:45;;;;;;;3.63;3.40;;;18.40;59.20;19.10;101519.00;;;;5028682;28;20171;-53
2023/04/18 02:32:11;;;;;;;3.33;3.07;;;18.40;59.40;19.10;101520.00;;;;5028593;28;20178;-52
2023/04/18 02:34:37;;;;;;;3.83;3.53;;;18.40;58.80;19.10;101520.00;;;;5028424;28;20182;-52
2023/04/18 02:37:03;;;;;;;3.73;3.43;;;18.30;58.80;19.10;101523.00;;;;5028827;28;20229;-52
2023/04/18 02:39:29;;;;;;;3.67;3.37;;;18.30;58.90;19.10;101519.00;;;;5028837;28;20251;-53
2023/04/18 02:41:54;;;;;;;3.57;3.37;;;18.30;58.90;19.00;101517.00;;;;5028738;28;20206;-52
2023/04/18 02:44:20;;;;;;;3.90;3.60;;;18.30;59.00;19.00;101519.00;;;;5028353;28;20261;-53
2023/04/18 02:46:46;;;;;;;3.80;3.50;;;18.30;59.00;19.00;101518.00;;;;5028432;28;20216;-52
2023/04/18 02:49:12;;;;;;;4.00;3.70;;;18.30;59.10;19.00;101518.00;;;;5028404;28;20293;-52
2023/04/18 02:51:37;;;;;;;4.07;3.77;;;18.30;59.00;19.00;101443.00;;;;5028698;28;20198;-57
2023/04/18 02:54:03;;;;;;;3.60;3.30;;;18.30;58.90;19.00;101528.00;;;;5037364;28;20263;-51
2023/04/18 02:56:29;;;;;;;3.83;3.53;;;18.20;58.90;19.00;101523.00;;;;5032993;28;20361;-51
2023/04/18 02:58:54;;;;;;;3.63;3.33;;;18.30;59.00;18.90;101518.00;;;;5030086;28;20186;-52
2023/04/18 03:01:20;;;;;;;3.40;3.20;;;18.20;58.90;18.90;101521.00;;;;5030844;28;20197;-52
2023/04/18 03:03:46;;;;;;;3.30;3.10;;;18.20;59.00;18.90;101527.00;;;;5030196;28;20220;-53
2023/04/18 03:06:12;;;;;;;3.90;3.60;;;18.20;58.90;18.90;101522.00;;;;5031111;28;20201;-52
2023/04/18 03:08:37;;;;;;;3.60;3.30;;;18.20;58.90;18.90;101523.00;;;;5037206;28;20181;-51
2023/04/18 03:11:03;;;;;;;3.50;3.20;;;18.10;58.90;18.90;101520.00;;;;5032510;28;20287;-52
2023/04/18 03:13:29;;;;;;;3.53;3.23;;;18.10;58.90;18.90;101511.00;;;;5027842;28;20316;-51
2023/04/18 03:15:55;;;;;;;3.67;3.43;;;18.10;58.90;18.80;101528.00;;;;5028332;28;20231;-52
2023/04/18 03:18:20;;;;;;;4.00;3.70;;;18.20;59.00;18.80;101520.00;;;;5028246;28;20555;-52
2023/04/18 03:20:46;;;;;;;3.83;3.53;;;18.10;58.80;18.80;101540.00;;;;5020562;28;20203;-53
2023/04/18 03:23:12;;;;;;;3.90;3.60;;;18.10;58.90;18.80;101527.00;;;;5028001;28;20225;-52
2023/04/18 03:25:37;;;;;;;3.77;3.47;;;18.10;58.80;18.80;101526.00;;;;5028206;28;20197;-52
2023/04/18 03:28:03;;;;;;;3.80;3.50;;;18.10;58.80;18.80;101525.00;;;;5021181;28;20915;-53
2023/04/18 03:30:29;;;;;;;4.50;3.60;;;18.10;59.20;18.70;101531.00;;;;5026124;28;20180;-52
2023/04/18 03:32:55;;;;;;;4.00;3.20;;;18.10;59.10;18.70;101529.00;;;;5028045;28;20175;-52
2023/04/18 03:35:21;;;;;;;3.57;3.27;;;18.00;59.30;18.70;101524.00;;;;5027929;28;20183;-52
2023/04/18 03:37:46;;;;;;;3.40;3.20;;;18.00;59.20;18.70;101533.00;;;;5027840;28;20210;-53
2023/04/18 03:40:12;;;;;;;3.73;3.27;;;18.00;59.10;18.70;101526.00;;;;5028289;28;20207;-52
2023/04/18 03:42:38;;;;;;;3.37;3.17;;;18.00;59.10;18.70;101532.00;;;;5011110;28;20605;-52
2023/04/18 03:45:04;;;;;;;4.50;3.30;;;18.00;59.10;18.70;101529.00;;;;5021322;28;20534;-52
2023/04/18 03:47:30;;;;;;;3.70;3.40;;;18.00;59.10;18.70;101528.00;;;;5028461;28;20202;-52
2023/04/18 03:49:56;;;;;;;3.50;3.20;;;18.00;59.10;18.70;101527.00;;;;5027681;28;20258;-53
2023/04/18 03:52:22;;;;;;;3.77;3.40;;;18.00;59.10;18.70;101520.00;;;;5028142;28;20758;-52
2023/04/18 03:54:47;;;;;;;3.50;3.20;;;17.90;58.90;18.70;101517.00;;;;5028574;28;20183;-52
2023/04/18 03:57:13;;;;;;;3.70;3.40;;;17.90;58.90;18.70;101529.00;;;;5028108;28;20595;-52
2023/04/18 03:59:39;;;;;;;3.60;3.30;;;17.90;58.90;18.60;101527.00;;;;5028699;28;20267;-52
2023/04/18 04:02:05;;;;;;;3.50;3.20;;;17.90;59.00;18.60;101529.00;;;;5028904;28;20187;-52
2023/04/18 04:04:31;;;;;;;4.00;3.60;;;17.90;58.90;18.60;101529.00;;;;5028541;28;20258;-54
2023/04/18 04:06:57;;;;;;;3.50;3.20;;;17.90;59.00;18.60;101532.00;;;;5029665;28;20204;-52
2023/04/18 04:09:22;;;;;;;3.33;3.13;;;17.90;59.00;18.60;101531.00;;;;5032252;28;20183;-53
2023/04/18 04:11:49;;;;;;;3.50;3.30;;;17.90;58.90;18.60;101535.00;;;;5031724;28;20244;-51
2023/04/18 04:14:14;;;;;;;3.33;3.10;;;17.90;58.90;18.60;101536.00;;;;5031017;28;20189;-52
2023/04/18 04:16:41;;;;;;;3.80;3.40;;;17.80;58.80;18.50;101541.00;;;;5031499;28;20199;-53
2023/04/18 04:19:06;;;;;;;3.60;3.30;;;17.80;58.80;18.50;101556.00;;;;5032086;28;20182;-54
2023/04/18 04:21:32;;;;;;;3.50;3.20;;;17.80;58.80;18.50;101541.00;;;;5030558;28;20264;-52
2023/04/18 04:23:58;;;;;;;3.37;3.07;;;17.80;58.80;18.50;101549.00;;;;5031187;28;20570;-52
2023/04/18 04:26:25;;;;;;;3.20;3.00;;;17.80;58.70;18.50;101546.00;;;;5031124;28;20215;-53
2023/04/18 04:28:52;;;;;;;4.60;3.50;;;17.80;58.80;18.50;101550.00;;;;5031460;28;20253;-53
2023/04/18 04:31:18;;;;;;;3.83;3.47;;;17.70;58.80;18.50;101557.00;;;;5031280;28;20744;-51
2023/04/18 04:33:44;;;;;;;5.80;3.60;;;17.80;59.00;18.40;101558.00;;;;5029948;28;20530;-53
2023/04/18 04:36:13;;;;;;;3.77;3.20;;;17.80;59.10;18.40;101568.00;;;;5031599;28;20258;-52
2023/04/18 04:38:39;;;;;;;6.80;3.77;;;17.70;59.10;18.40;101566.00;;;;5032130;28;20792;-51
2023/04/18 04:41:08;;;;;;;3.77;3.30;;;17.70;59.10;18.40;101573.00;;;;5031257;28;20204;-52
2023/04/18 04:43:34;;;;;;;4.00;3.40;;;17.70;59.10;18.40;101576.00;;;;5029903;28;20186;-53
2023/04/18 04:46:03;;;;;;;5.27;3.50;;;17.70;59.10;18.40;101574.00;;;;5032873;28;20175;-52
2023/04/18 04:48:29;;;;;;;8.40;3.77;;;17.70;59.10;18.40;101578.00;;;;5030823;28;20782;-52
2023/04/18 04:50:57;;;;;;;4.83;3.57;;;17.70;59.10;18.30;101586.00;;;;5031891;28;20189;-52
2023/04/18 04:53:25;;;;;;;5.07;3.40;;;17.70;59.10;18.30;101594.00;;;;5047810;28;20288;-52
2023/04/18 04:55:50;;;;;;;5.60;3.37;;;17.70;59.10;18.30;101587.00;;;;5034932;28;20190;-52
2023/04/18 04:58:16;;;;;;;6.23;3.33;;;17.70;59.10;18.30;101595.00;;;;5023455;28;20187;-52
2023/04/18 05:00:42;;;;;;;4.40;3.30;;;17.60;59.00;18.30;101585.00;;;;5033150;28;20199;-52
2023/04/18 05:03:08;;;;;;;6.80;3.37;;;17.60;59.00;18.30;101589.00;;;;5034276;28;20182;-52
2023/04/18 05:05:34;;;;;;;5.63;3.40;;;17.60;59.00;18.30;101591.00;;;;5035323;28;20190;-52
2023/04/18 05:08:00;;;;;;;5.17;3.60;;;17.60;59.00;18.30;101595.00;;;;5041444;28;20194;-52
2023/04/18 05:10:26;;;;;;;4.37;3.50;;;17.60;59.00;18.30;101602.00;;;;5028584;28;20552;-53
2023/04/18 05:12:51;;;;;;;4.53;3.30;;;17.60;59.00;18.20;101601.00;;;;5035632;28;20675;-52
2023/04/18 05:15:17;;;;;;;3.57;3.17;;;17.60;59.00;18.20;101599.00;;;;5031877;28;20254;-54
2023/04/18 05:17:43;;;;;;;4.43;3.53;;;17.50;58.90;18.20;101601.00;;;;5029776;28;20212;-53
2023/04/18 05:20:09;;;;;;;4.63;3.23;;;17.60;59.00;18.20;101605.00;;;;5030722;28;20201;-52
2023/04/18 05:22:35;;;;;;;4.93;3.57;;;17.50;58.90;18.20;101603.00;;;;5030785;28;20183;-52
2023/04/18 05:25:01;;;;;;;3.93;3.40;;;17.50;58.90;18.20;101620.00;;;;5030328;28;20257;-52
2023/04/18 05:27:26;;;;;;;5.70;3.30;;;17.50;58.90;18.20;101614.00;;;;5030632;28;20234;-52
2023/04/18 05:29:52;;;;;;;4.60;3.57;;;17.50;58.90;18.20;101623.00;;;;5028875;28;20177;-53
2023/04/18 05:32:18;;;;;;;3.43;3.13;;;17.40;58.80;18.10;101627.00;;;;5022125;28;20274;-52
2023/04/18 05:34:44;;;;;;;4.33;3.30;;;17.50;58.90;18.10;101625.00;;;;5029975;28;20175;-52
2023/04/18 05:37:09;;;;;;;4.00;3.60;;;17.40;58.80;18.10;101631.00;;;;5030148;28;20222;-53
2023/04/18 05:39:35;;;;;;;3.63;3.20;;;17.40;58.80;18.10;101632.00;;;;5030371;28;20850;-52
2023/04/18 05:42:01;;;;;;;3.80;3.50;;;17.40;58.80;18.10;101639.00;;;;5030312;28;20647;-52
2023/04/18 05:44:28;;;;;;;3.60;3.30;;;17.40;58.90;18.10;101633.00;;;;5030541;28;20637;-52
2023/04/18 05:46:53;;;;;;;3.57;3.20;;;17.40;58.90;18.10;101635.00;;;;5030191;28;20200;-52
2023/04/18 05:49:19;;;;;;;3.40;3.10;;;17.40;58.80;18.10;101638.00;;;;5030737;28;20204;-53
2023/04/18 05:51:48;;;;;;;3.57;3.27;;;17.40;58.80;18.10;101636.00;;;;5030810;28;20171;-53
2023/04/18 05:54:14;;;;;;;3.93;3.57;;;17.40;58.80;18.00;101641.00;;;;5029494;28;20195;-52
2023/04/18 05:56:40;;;;;;;3.60;3.30;;;17.30;58.80;18.00;101636.00;;;;5029599;28;20200;-53
2023/04/18 05:59:05;;;;;;;3.40;3.10;;;17.40;58.90;18.00;101639.00;;;;5029826;28;20544;-52
2023/04/18 06:01:31;;;;;;;3.43;3.13;;;17.30;58.80;18.00;101633.00;;;;5029840;28;20201;-53
2023/04/18 06:03:57;;;;;;;3.23;3.03;;;17.30;58.90;18.00;101645.00;;;;5029404;28;20170;-52
2023/04/18 06:06:23;;;;;;;3.53;3.23;;;17.30;58.90;18.00;101643.00;;;;5021436;28;20198;-52
2023/04/18 06:08:48;;;;;;;4.40;3.20;;;17.30;58.90;18.00;101646.00;;;;5029824;28;20179;-52
2023/04/18 06:11:14;;;;;;;3.40;3.10;;;17.30;58.90;17.90;101645.00;;;;5028391;28;20233;-52
2023/04/18 06:13:40;;;;;;;3.67;3.37;;;17.30;58.90;18.00;101643.00;;;;5029262;28;20180;-53
2023/04/18 06:16:06;;;;;;;3.30;3.07;;;17.20;58.90;17.90;101645.00;;;;5029296;28;20203;-52
2023/04/18 06:18:32;;;;;;;3.60;3.30;;;17.20;58.90;17.90;101653.00;;;;5028528;28;20180;-52
2023/04/18 06:20:57;;;;;;;3.33;3.00;;;17.20;58.90;17.90;101640.00;;;;5029601;28;20568;-53
2023/04/18 06:23:23;;;;;;;3.33;2.97;;;17.30;59.00;17.90;101656.00;;;;5029165;28;20179;-52
2023/04/18 06:25:49;;;;;;;3.40;3.10;;;17.20;58.90;17.90;101655.00;;;;5028839;28;20191;-52
2023/04/18 06:28:15;;;;;;;3.20;2.90;;;17.20;58.90;17.90;101650.00;;;;5029597;28;20643;-53
2023/04/18 06:30:41;;;;;;;3.87;3.53;;;17.20;59.00;17.90;101658.00;;;;5027691;28;20194;-53
2023/04/18 06:33:09;;;;;;;3.87;3.57;;;17.20;59.00;17.90;101660.00;;;;5028826;28;20594;-52
2023/04/18 06:35:35;;;;;;;3.40;3.10;;;17.20;59.00;17.90;101654.00;;;;5028893;28;20703;-52
2023/04/18 06:38:00;;;;;;;3.60;3.30;;;17.20;59.00;17.80;101671.00;;;;5029243;28;20204;-52
2023/04/18 06:40:26;;;;;;;3.07;2.87;;;17.20;59.00;17.80;101673.00;;;;5028906;28;20235;-52
2023/04/18 06:42:52;;;;;;;3.53;3.27;;;17.20;59.00;17.80;101663.00;;;;5029130;28;20664;-52
2023/04/18 06:45:18;;;;;;;3.30;3.10;;;17.20;59.00;17.80;101674.00;;;;5028087;28;20171;-52
2023/04/18 06:47:43;;;;;;;3.47;3.20;;;17.10;59.00;17.80;101666.00;;;;5027764;28;20222;-51
2023/04/18 06:50:09;;;;;;;3.40;3.10;;;17.10;59.00;17.80;101670.00;;;;5028198;28;20184;-52
2023/04/18 06:52:39;;;;;;;3.63;3.33;;;17.10;59.00;17.80;101670.00;;;;5043117;28;20213;-52
2023/04/18 06:55:06;;;;;;;3.93;3.53;;;17.10;59.00;17.80;101669.00;;;;5038126;28;20655;-53
2023/04/18 06:57:32;;;;;;;3.30;3.00;;;17.10;59.10;17.80;101672.00;;;;5027987;28;20194;-53
2023/04/18 06:59:57;;;;;;;3.50;3.20;;;17.10;59.00;17.80;101678.00;;;;5026332;28;20199;-52
2023/04/18 07:02:23;;;;;;;3.40;3.10;;;17.10;59.10;17.80;101680.00;;;;5029327;28;20184;-52
2023/04/18 07:04:49;;;;;;;3.73;3.30;;;17.00;59.20;17.70;101689.00;;;;5029434;28;20199;-53
2023/04/18 07:07:15;;;;;;;5.10;3.40;;;17.10;59.30;17.70;101679.00;;;;5035592;28;20203;-51
2023/04/18 07:09:40;;;;;;;5.03;3.20;;;17.10;59.30;17.70;101682.00;;;;5036199;28;20543;-53
2023/04/18 07:12:06;;;;;;;3.23;3.03;;;17.00;59.20;17.70;101684.00;;;;5029405;28;20186;-52
2023/04/18 07:14:32;;;;;;;3.37;3.10;;;17.10;59.30;17.70;101690.00;;;;5029421;28;20182;-52
2023/04/18 07:16:59;;;;;;;3.90;3.23;;;17.00;59.20;17.70;101694.00;;;;5031290;28;20195;-52
2023/04/18 07:19:25;;;;;;;3.27;3.00;;;17.00;59.50;17.70;101683.00;;;;5028826;28;20190;-51
2023/04/18 07:21:51;;;;;;;3.30;3.00;;;17.00;59.80;17.70;101693.00;;;;5029107;28;20224;-53
2023/04/18 07:24:16;;;;;;;3.33;3.10;;;17.00;59.70;17.70;101699.00;;;;5029031;28;20212;-52
2023/04/18 07:26:42;;;;;;;9.03;3.40;;;17.00;59.70;17.70;101694.00;;;;5028564;28;20207;-54
2023/04/18 07:29:08;;;;;;;3.73;3.20;;;17.00;59.80;17.70;101697.00;;;;5011122;28;20181;-52
2023/04/18 07:31:34;;;;;;;3.60;3.30;;;17.00;59.70;17.70;101711.00;;;;5028979;28;20211;-52
2023/04/18 07:33:59;;;;;;;3.67;3.37;;;17.00;59.70;17.60;101699.00;;;;5028840;28;20179;-52
2023/04/18 07:36:25;;;;;;;3.67;3.37;;;17.00;60.30;17.70;101698.00;;;;5029061;28;20552;-53
2023/04/18 07:38:51;;;;;;;3.60;3.30;;;17.00;59.60;17.60;101707.00;;;;5028838;28;20249;-52
2023/04/18 07:41:17;;;;;;;4.33;3.60;;;17.00;59.60;17.60;101703.00;;;;5030968;28;20257;-52
2023/04/18 07:43:43;;;;;;;3.30;3.00;;;16.90;59.50;17.60;101710.00;;;;5031420;28;20512;-52
2023/04/18 07:46:09;;;;;;;3.90;3.33;;;16.90;59.40;17.60;101705.00;;;;5032717;28;20198;-52
2023/04/18 07:48:35;;;;;;;3.87;3.57;;;16.90;59.30;17.60;101717.00;;;;5031940;28;20652;-53
2023/04/18 07:51:01;;;;;;;3.70;3.40;;;16.90;59.30;17.60;101717.00;;;;5033093;28;20258;-53
2023/04/18 07:53:27;;;;;;;3.83;3.30;;;16.90;59.20;17.60;101718.00;;;;5032441;28;20180;-52
2023/04/18 07:55:53;;;;;;;4.00;3.70;;;16.90;59.10;17.60;101726.00;;;;5032815;28;20234;-52
2023/04/18 07:58:19;;;;;;;4.03;3.53;;;16.80;59.10;17.60;101716.00;;;;5032183;28;20271;-52
2023/04/18 08:00:45;;;;;;;3.70;3.40;;;16.80;59.10;17.60;101722.00;;;;5032229;28;20588;-52
2023/04/18 08:03:11;;;;;;;3.67;3.37;;;16.90;59.80;17.50;101719.00;;;;5032064;28;20167;-52
2023/04/18 08:05:38;;;;;;;4.00;3.60;;;16.80;59.10;17.50;101718.00;;;;5032361;28;20179;-52
2023/04/18 08:08:06;;;;;;;3.67;3.37;;;16.80;59.00;17.50;101718.00;;;;5030906;28;20199;-52
2023/04/18 08:10:32;;;;;;;4.47;3.80;;;16.90;59.10;17.50;101714.00;;;;5031170;28;20190;-49
2023/04/18 08:12:58;;;;;;;5.20;3.70;;;16.80;59.00;17.50;101717.00;;;;5032216;28;20189;-49
2023/04/18 08:15:24;;;;;;;5.50;3.53;;;16.90;59.10;17.50;101721.00;;;;5026073;28;20191;-49
2023/04/18 08:17:50;;;;;;;4.20;3.80;;;16.80;59.10;17.50;101719.00;;;;5031405;28;20199;-49
2023/04/18 08:20:16;;;;;;;4.23;3.67;;;16.80;59.20;17.50;101722.00;;;;5030581;28;20207;-50
2023/04/18 08:22:42;;;;;;;4.47;3.60;;;16.90;59.40;17.50;101712.00;;;;5032296;28;20247;-49
2023/04/18 08:25:08;;;;;;;5.93;3.57;;;16.90;59.40;17.50;101726.00;;;;5032243;28;20268;-49
2023/04/18 08:27:33;;;;;;;11.33;4.07;;;16.90;59.40;17.50;101724.00;;;;5030355;28;20345;-45
2023/04/18 08:30:00;;;;;;;9.63;4.10;;;16.90;60.00;17.50;101723.00;;;;5030726;28;20258;-48
2023/04/18 08:32:26;;;;;;;6.83;3.90;;;16.90;59.60;17.50;101719.00;;;;5038052;28;20176;-48
2023/04/18 08:34:52;;;;;;;4.40;3.30;;;16.90;59.50;17.50;101723.00;;;;5031855;28;20594;-48
2023/04/18 08:37:18;;;;;;;6.10;3.63;;;16.90;60.00;17.50;101720.00;;;;5036257;28;20688;-47
2023/04/18 08:39:43;;;;;;;4.97;3.43;;;16.90;59.80;17.50;101734.00;;;;5036768;28;20685;-47
2023/04/18 08:42:09;;;;;;;4.07;3.30;;;16.90;59.70;17.60;101726.00;;;;5037368;28;20172;-47
2023/04/18 08:44:36;;;;;;;6.57;3.57;;;17.00;59.90;17.60;101728.00;;;;5030728;28;20183;-51
2023/04/18 08:47:02;;;;;;;6.90;3.40;;;17.00;59.80;17.60;101728.00;;;;5030868;28;20193;-46
2023/04/18 08:49:29;;;;;;;6.53;3.40;;;17.00;59.80;17.60;101728.00;;;;5023632;28;20172;-46
2023/04/18 08:51:56;;;;;;;6.83;3.57;;;17.00;59.70;17.60;101726.00;;;;5041453;28;20202;-48
2023/04/18 08:54:22;;;;;;;10.00;3.80;;;17.00;59.70;17.60;101731.00;;;;5040965;28;20214;-46
2023/04/18 08:57:03;;;;;;;8.00;3.63;;;17.00;59.70;17.60;101725.00;;;;5031523;28;20229;-48
2023/04/18 08:59:31;;;;;;;6.17;3.40;;;17.00;59.80;17.60;101724.00;;;;5031562;28;20180;-46
2023/04/18 09:01:57;;;;;;;6.50;3.23;;;17.00;59.70;17.60;101728.00;;;;5031347;28;20208;-46
2023/04/18 09:04:38;;;;;;;6.60;3.53;;;17.00;59.90;17.60;101733.00;;;;5030695;28;20172;-47
2023/04/18 09:07:06;;;;;;;12.40;3.80;;;17.00;59.80;17.70;101731.00;;;;5042138;28;20290;-49
2023/04/18 09:09:48;;;;;;;11.07;3.53;;;17.00;59.80;17.70;101733.00;;;;5033190;28;20263;-47
2023/04/18 09:12:25;;;;;;;4.43;3.03;;;17.00;59.80;17.70;101737.00;;;;5031587;28;20224;-48
2023/04/18 09:14:56;;;;;;;3.40;3.00;;;17.00;59.80;17.50;101729.00;;;;5031502;28;20198;-55
2023/04/18 09:17:44;;;;;;;6.17;3.27;;;17.00;59.80;17.70;101728.00;;;;5021099;28;20211;-46
2023/04/18 09:20:11;;;;;;;6.63;3.17;;;17.00;59.70;17.70;101734.00;;;;5032327;28;20203;-47
2023/04/18 09:22:53;;;;;;;6.87;3.20;;;17.00;59.70;17.70;101729.00;;;;5029949;28;20184;-47
2023/04/18 09:25:36;;;;;;;5.57;3.33;;;17.00;59.70;17.70;101731.00;;;;5031210;28;20180;-46
2023/04/18 09:28:04;;;;;;;3.90;3.07;;;17.00;59.90;17.70;101720.00;;;;5030788;28;20204;-47
2023/04/18 09:30:36;;;;;;;4.60;3.20;;;17.10;60.00;17.70;101717.00;;;;5029835;28;20188;-46
2023/04/18 09:33:08;;;;;;;4.97;3.23;;;17.10;60.20;17.70;101720.00;;;;5030977;28;20177;-48
2023/04/18 09:35:37;;;;;;;8.77;3.47;;;17.10;60.10;17.70;101728.00;;;;5030559;28;20198;-46
2023/04/18 09:38:02;;;;;;;8.07;3.53;;;17.00;59.80;17.80;101720.00;;;;5031083;28;20200;-46
2023/04/18 09:40:30;;;;;;;8.67;3.50;;;17.00;59.70;17.80;101726.00;;;;5031000;28;20206;-46
2023/04/18 09:42:55;;;;;;;14.70;3.47;;;17.10;59.70;17.70;101722.00;;;;5030821;28;20638;-46
2023/04/18 09:45:22;;;;;;;9.63;3.83;;;17.10;60.20;17.70;101716.00;;;;5031105;28;20178;-46
2023/04/18 09:47:48;;;;;;;12.30;3.97;;;17.10;60.00;17.80;101718.00;;;;5030225;28;20210;-45
2023/04/18 09:50:15;;;;;;;12.37;3.83;;;17.10;61.00;17.70;101624.00;;;;5030359;28;20216;-46
2023/04/18 09:52:42;;;;;;;6.67;3.93;;;17.00;60.40;17.70;101710.00;;;;5030729;28;20241;-47
2023/04/18 09:55:17;;;;;;;7.90;3.70;;;17.10;60.60;17.80;101694.00;;;;5030921;28;20209;-46
2023/04/18 09:57:47;;;;;;;9.93;3.70;;;17.10;60.70;17.70;101703.00;;;;5030283;28;20701;-46
2023/04/18 10:00:23;;;;;;;10.40;4.00;;;17.00;61.00;17.80;101703.00;;;;5029887;28;20204;-46
2023/04/18 10:03:09;;;;;;;8.37;3.47;;;17.10;61.50;17.80;101708.00;;;;5030298;28;20187;-46
2023/04/18 10:05:38;;;;;;;10.47;4.30;;;17.10;61.40;17.70;101700.00;;;;5030994;28;20256;-47
2023/04/18 10:08:04;;;;;;;7.60;3.43;;;17.10;61.90;17.70;101700.00;;;;5029933;28;20265;-47
2023/04/18 10:10:31;;;;;;;9.63;3.80;;;17.20;61.70;17.70;101699.00;;;;5029580;28;20202;-46
2023/04/18 10:12:58;;;;;;;5.57;3.67;;;17.10;61.50;17.70;101708.00;;;;5030258;28;20179;-47
2023/04/18 10:15:25;;;;;;;8.57;3.70;;;17.10;61.60;17.70;101699.00;;;;5029196;28;20402;-46
2023/04/18 10:18:02;;;;;;;8.33;4.10;;;17.10;61.50;17.70;101695.00;;;;5029312;28;20682;-47
2023/04/18 10:20:30;;;;;;;7.20;3.37;;;17.20;61.50;17.70;101685.00;;;;5028450;28;20229;-46
2023/04/18 10:22:56;;;;;;;7.17;3.50;;;17.10;61.30;17.80;101686.00;;;;5031322;28;20179;-47
2023/04/18 10:25:37;;;;;;;5.90;3.43;;;17.10;61.20;17.80;101691.00;;;;5030638;28;20191;-46
2023/04/18 10:28:07;;;;;;;7.63;3.63;;;17.10;61.30;17.80;101682.00;;;;5030388;28;20198;-46
2023/04/18 10:30:39;;;;;;;8.87;3.40;;;17.10;61.40;17.80;101687.00;;;;5029302;28;20197;-46
2023/04/18 10:33:40;;;;;;;10.57;3.63;;;17.20;61.50;17.90;101690.00;;;;5026622;28;20198;-47
2023/04/18 10:36:10;;;;;;;7.57;3.50;;;17.20;61.30;17.80;101682.00;;;;5025209;28;20678;-47
2023/04/18 10:38:43;;;;;;;7.93;3.63;;;17.20;61.30;17.90;101678.00;;;;5029833;28;20296;-47
2023/04/18 10:41:20;;;;;;;7.83;3.60;;;17.20;61.40;17.90;101676.00;;;;5029528;28;20215;-47
2023/04/18 10:44:07;;;;;;;8.07;3.63;;;17.20;61.40;17.90;101679.00;;;;5030000;28;20221;-47
2023/04/18 10:46:51;;;;;;;6.67;3.13;;;17.20;61.20;17.90;101681.00;;;;5030286;28;20209;-46